Time;durP1;ratioP1;P1;durP2;ratioP2;P2;SDS_P1;SDS_P2;PMS_P1;PMS_P2;Temp;Humidity;BMP_temperature;BMP_pressure;BME280_temperature;BME280_humidity;BME280_pressure;Samples;Min_cycle;Max_cycle;Signal;HPM_P1;HPM_P2
2021/09/24 00:00:23;;;;;;;11.20;2.33;;;;;;;;;;5038503;28;20103;-63
2021/09/24 00:02:49;;;;;;;4.85;0.77;;;;;;;;;;5032891;28;20036;-63
2021/09/24 00:05:15;;;;;;;6.60;1.25;;;;;;;;;;5035268;28;20033;-62
2021/09/24 00:07:41;;;;;;;9.63;1.17;;;;;;;;;;5028316;28;20077;-62
2021/09/24 00:10:08;;;;;;;4.53;0.90;;;;;;;;;;5036631;28;20579;-62
2021/09/24 00:12:34;;;;;;;5.97;1.00;;;;;;;;;;5033688;28;20159;-62
2021/09/24 00:14:59;;;;;;;9.45;1.15;;;;;;;;;;5038910;28;20195;-62
2021/09/24 00:17:25;;;;;;;5.40;0.75;;;;;;;;;;5031848;28;20035;-62
2021/09/24 00:19:50;;;;;;;6.35;1.02;;;;;;;;;;5033059;28;20033;-62
2021/09/24 00:22:16;;;;;;;7.85;1.08;;;;;;;;;;5033663;28;20041;-62
2021/09/24 00:24:41;;;;;;;3.22;0.65;;;;;;;;;;5037655;28;20033;-62
2021/09/24 00:27:07;;;;;;;4.50;0.80;;;;;;;;;;5035450;28;20542;-62
2021/09/24 00:29:32;;;;;;;9.57;0.82;;;;;;;;;;5034697;28;20025;-62
2021/09/24 00:31:58;;;;;;;7.43;1.42;;;;;;;;;;5039735;28;20033;-63
2021/09/24 00:34:23;;;;;;;11.80;1.17;;;;;;;;;;5030671;28;20041;-62
2021/09/24 00:36:49;;;;;;;8.98;1.13;;;;;;;;;;5037795;28;20428;-62
2021/09/24 00:39:15;;;;;;;12.75;2.05;;;;;;;;;;5040793;28;20060;-62
2021/09/24 00:41:40;;;;;;;7.78;1.17;;;;;;;;;;5034871;28;20044;-62
2021/09/24 00:44:06;;;;;;;10.52;1.30;;;;;;;;;;5037156;28;20103;-62
2021/09/24 00:46:32;;;;;;;4.50;1.00;;;;;;;;;;5031683;28;20048;-62
2021/09/24 00:48:57;;;;;;;4.57;2.10;;;;;;;;;;5031887;28;20052;-63
2021/09/24 00:51:23;;;;;;;11.32;1.08;;;;;;;;;;5036782;28;20125;-62
2021/09/24 00:53:48;;;;;;;6.60;1.00;;;;;;;;;;5033282;28;20049;-62
2021/09/24 00:56:15;;;;;;;8.98;1.02;;;;;;;;;;5034988;28;20091;-62
2021/09/24 00:58:40;;;;;;;5.22;1.13;;;;;;;;;;5035516;28;20028;-62
2021/09/24 01:01:06;;;;;;;4.05;0.98;;;;;;;;;;4999880;28;20068;-62
2021/09/24 01:03:31;;;;;;;5.85;0.70;;;;;;;;;;4996832;28;20040;-62
2021/09/24 01:05:57;;;;;;;5.45;0.82;;;;;;;;;;5003652;28;20377;-62
2021/09/24 01:08:22;;;;;;;4.15;0.95;;;;;;;;;;4999571;28;20026;-62
2021/09/24 01:10:48;;;;;;;3.08;0.80;;;;;;;;;;5001735;28;20092;-62
2021/09/24 01:13:14;;;;;;;3.83;0.88;;;;;;;;;;5004449;28;20540;-62
2021/09/24 01:15:40;;;;;;;3.05;1.10;;;;;;;;;;4996521;28;20052;-62
2021/09/24 01:18:05;;;;;;;2.35;0.80;;;;;;;;;;4998198;28;20412;-62
2021/09/24 01:20:31;;;;;;;3.97;1.10;;;;;;;;;;4997944;28;20587;-62
2021/09/24 01:22:57;;;;;;;3.97;1.13;;;;;;;;;;5003357;28;20038;-63
2021/09/24 01:25:23;;;;;;;8.98;1.38;;;;;;;;;;4999313;28;20033;-62
2021/09/24 01:27:49;;;;;;;5.45;1.30;;;;;;;;;;4997919;28;20091;-62
2021/09/24 01:30:15;;;;;;;6.50;1.42;;;;;;;;;;5000222;28;20137;-63
2021/09/24 01:32:45;;;;;;;2.72;1.00;;;;;;;;;;4995622;28;20044;-63
2021/09/24 01:35:13;;;;;;;5.18;1.40;;;;;;;;;;4995054;28;20059;-63
2021/09/24 01:37:39;;;;;;;5.15;1.38;;;;;;;;;;5000207;28;20034;-62
2021/09/24 01:40:17;;;;;;;3.83;1.17;;;;;;;;;;4999678;28;20038;-62
2021/09/24 01:42:43;;;;;;;4.72;1.40;;;;;;;;;;5003142;28;20037;-62
2021/09/24 01:45:10;;;;;;;6.03;1.60;;;;;;;;;;4994387;28;20096;-62
2021/09/24 01:47:36;;;;;;;3.53;1.23;;;;;;;;;;5000612;28;20038;-63
2021/09/24 01:50:02;;;;;;;3.00;1.42;;;;;;;;;;4995504;28;20039;-63
2021/09/24 01:52:28;;;;;;;3.78;1.38;;;;;;;;;;5001844;28;20092;-63
2021/09/24 01:54:54;;;;;;;3.10;1.35;;;;;;;;;;4996068;28;20451;-62
2021/09/24 01:57:20;;;;;;;4.13;1.45;;;;;;;;;;4994313;28;20057;-62
2021/09/24 01:59:45;;;;;;;6.32;1.67;;;;;;;;;;5000117;28;20485;-63
2021/09/24 02:02:11;;;;;;;3.92;1.73;;;;;;;;;;4996148;28;20053;-63
2021/09/24 02:04:36;;;;;;;5.15;1.65;;;;;;;;;;5000467;28;20100;-63
2021/09/24 02:07:02;;;;;;;3.88;1.90;;;;;;;;;;5003447;28;20030;-63
2021/09/24 02:09:27;;;;;;;5.10;1.50;;;;;;;;;;4996179;28;20123;-63
2021/09/24 02:11:53;;;;;;;5.40;2.25;;;;;;;;;;4998300;28;20447;-62
2021/09/24 02:14:18;;;;;;;8.75;2.38;;;;;;;;;;4997192;28;20037;-62
2021/09/24 02:16:44;;;;;;;7.75;2.60;;;;;;;;;;4995406;28;20034;-62
2021/09/24 02:19:09;;;;;;;7.18;2.80;;;;;;;;;;4991962;28;20040;-62
2021/09/24 02:21:35;;;;;;;7.70;3.13;;;;;;;;;;4994505;28;20530;-63
2021/09/24 02:24:00;;;;;;;8.10;2.60;;;;;;;;;;4994130;28;20034;-62
2021/09/24 02:26:26;;;;;;;8.90;3.55;;;;;;;;;;4999600;28;20092;-62
2021/09/24 02:28:51;;;;;;;7.40;3.65;;;;;;;;;;4999715;28;20034;-62
2021/09/24 02:31:17;;;;;;;8.45;4.07;;;;;;;;;;4999711;28;20109;-62
2021/09/24 02:33:44;;;;;;;9.82;3.85;;;;;;;;;;4997048;28;20219;-62
2021/09/24 02:36:10;;;;;;;18.10;3.60;;;;;;;;;;4994585;28;20671;-62
2021/09/24 02:38:36;;;;;;;10.00;3.72;;;;;;;;;;5003793;28;20275;-62
2021/09/24 02:41:03;;;;;;;9.70;4.40;;;;;;;;;;5004495;28;20112;-63
2021/09/24 02:43:28;;;;;;;8.20;4.05;;;;;;;;;;5003827;28;20030;-62
2021/09/24 02:45:54;;;;;;;9.68;4.05;;;;;;;;;;5001588;28;20121;-63
2021/09/24 02:48:19;;;;;;;6.90;3.25;;;;;;;;;;4993698;28;20116;-62
2021/09/24 02:50:45;;;;;;;7.75;3.50;;;;;;;;;;4998263;28;20030;-63
2021/09/24 02:53:11;;;;;;;9.13;3.88;;;;;;;;;;4998195;28;20551;-63
2021/09/24 02:55:37;;;;;;;7.60;3.63;;;;;;;;;;5007624;28;20137;-62
2021/09/24 02:58:03;;;;;;;5.10;3.75;;;;;;;;;;5001963;28;20030;-63
2021/09/24 03:00:28;;;;;;;8.48;3.83;;;;;;;;;;5000052;28;20030;-63
2021/09/24 03:02:54;;;;;;;6.22;3.30;;;;;;;;;;5000512;28;20022;-63
2021/09/24 03:05:21;;;;;;;5.20;3.47;;;;;;;;;;5002957;28;20041;-62
2021/09/24 03:07:47;;;;;;;6.72;3.50;;;;;;;;;;5004247;28;20088;-62
2021/09/24 03:10:13;;;;;;;5.43;3.30;;;;;;;;;;4999028;28;20424;-62
2021/09/24 03:12:38;;;;;;;4.80;3.15;;;;;;;;;;4999808;28;20029;-63
2021/09/24 03:15:06;;;;;;;3.97;2.65;;;;;;;;;;5001023;28;20030;-63
2021/09/24 03:17:32;;;;;;;5.22;2.75;;;;;;;;;;5000001;28;20030;-63
2021/09/24 03:19:57;;;;;;;8.70;3.25;;;;;;;;;;5004507;28;20037;-63
2021/09/24 03:22:23;;;;;;;5.20;2.30;;;;;;;;;;5000954;28;20026;-63
2021/09/24 03:24:49;;;;;;;3.47;1.80;;;;;;;;;;4998176;28;20030;-63
2021/09/24 03:27:15;;;;;;;4.68;2.15;;;;;;;;;;4995929;28;20477;-63
2021/09/24 03:29:40;;;;;;;2.45;1.85;;;;;;;;;;4998380;28;20037;-63
2021/09/24 03:32:06;;;;;;;4.15;2.17;;;;;;;;;;4996999;28;20045;-63
2021/09/24 03:34:32;;;;;;;2.95;2.10;;;;;;;;;;5000957;28;20080;-63
2021/09/24 03:36:57;;;;;;;3.67;2.42;;;;;;;;;;5002726;28;20508;-63
2021/09/24 03:39:23;;;;;;;3.67;2.30;;;;;;;;;;5005553;28;20489;-63
2021/09/24 03:41:49;;;;;;;2.40;2.10;;;;;;;;;;5002678;28;20122;-63
2021/09/24 03:44:14;;;;;;;5.00;2.00;;;;;;;;;;5001455;28;20488;-63
2021/09/24 03:46:40;;;;;;;3.85;2.08;;;;;;;;;;5004434;28;20048;-63
2021/09/24 03:49:05;;;;;;;3.67;1.92;;;;;;;;;;5000886;28;20042;-64
2021/09/24 03:51:31;;;;;;;3.90;2.33;;;;;;;;;;5002263;28;20622;-63
2021/09/24 03:53:57;;;;;;;3.33;1.85;;;;;;;;;;4999268;28;20022;-63
2021/09/24 03:56:23;;;;;;;7.18;2.38;;;;;;;;;;5003982;28;20038;-63
2021/09/24 03:58:49;;;;;;;7.40;3.05;;;;;;;;;;4999945;28;20120;-63
2021/09/24 04:01:15;;;;;;;9.82;3.47;;;;;;;;;;4997889;28;20447;-63
2021/09/24 04:03:42;;;;;;;6.25;2.40;;;;;;;;;;4997910;28;20021;-63
2021/09/24 04:06:09;;;;;;;8.90;2.63;;;;;;;;;;5005587;28;20030;-63
2021/09/24 04:08:34;;;;;;;5.40;2.20;;;;;;;;;;4993271;28;20277;-63
2021/09/24 04:11:00;;;;;;;5.15;2.63;;;;;;;;;;5002702;28;20272;-63
2021/09/24 04:13:25;;;;;;;4.07;2.38;;;;;;;;;;4996778;28;20038;-63
2021/09/24 04:15:51;;;;;;;5.40;2.67;;;;;;;;;;4998323;28;20041;-63
2021/09/24 04:18:16;;;;;;;3.50;2.30;;;;;;;;;;4998234;28;20053;-63
2021/09/24 04:20:42;;;;;;;4.57;3.20;;;;;;;;;;4999511;28;20639;-63
2021/09/24 04:23:07;;;;;;;7.70;2.85;;;;;;;;;;5006248;28;20037;-63
2021/09/24 04:25:33;;;;;;;6.93;2.92;;;;;;;;;;4994837;28;20461;-63
2021/09/24 04:27:58;;;;;;;8.65;3.10;;;;;;;;;;4998186;28;20048;-63
2021/09/24 04:30:24;;;;;;;5.13;2.58;;;;;;;;;;4998262;28;20402;-63
2021/09/24 04:32:49;;;;;;;4.20;2.30;;;;;;;;;;5001309;28;20037;-63
2021/09/24 04:35:15;;;;;;;7.75;2.35;;;;;;;;;;5003446;28;20216;-63
2021/09/24 04:37:40;;;;;;;3.55;1.35;;;;;;;;;;4995918;28;20125;-63
2021/09/24 04:40:07;;;;;;;2.25;1.10;;;;;;;;;;5003186;28;20161;-63
2021/09/24 04:42:32;;;;;;;5.03;1.27;;;;;;;;;;5002091;28;20125;-63
2021/09/24 04:44:58;;;;;;;7.10;1.45;;;;;;;;;;5002258;28;20118;-63
2021/09/24 04:47:24;;;;;;;2.60;1.25;;;;;;;;;;4999052;28;20041;-63
2021/09/24 04:49:49;;;;;;;1.83;1.10;;;;;;;;;;5003106;28;20079;-63
2021/09/24 04:52:15;;;;;;;4.63;1.70;;;;;;;;;;4999236;28;20034;-63
2021/09/24 04:54:40;;;;;;;3.05;1.23;;;;;;;;;;5002077;28;20484;-63
2021/09/24 04:57:06;;;;;;;5.50;1.55;;;;;;;;;;5000063;28;20069;-63
2021/09/24 04:59:32;;;;;;;6.13;1.83;;;;;;;;;;4999054;28;20034;-63
2021/09/24 05:01:57;;;;;;;6.00;1.75;;;;;;;;;;5003001;28;20030;-63
2021/09/24 05:04:23;;;;;;;5.00;1.35;;;;;;;;;;4996685;28;20014;-63
2021/09/24 05:06:48;;;;;;;3.65;1.73;;;;;;;;;;5002204;28;20452;-63
2021/09/24 05:09:14;;;;;;;4.38;1.83;;;;;;;;;;5003410;28;20041;-62
2021/09/24 05:11:39;;;;;;;6.13;1.83;;;;;;;;;;4997890;28;20378;-63
2021/09/24 05:14:05;;;;;;;2.80;1.50;;;;;;;;;;5003693;28;20049;-63
2021/09/24 05:16:30;;;;;;;4.78;2.00;;;;;;;;;;4997317;28;20477;-63
2021/09/24 05:18:56;;;;;;;5.85;1.98;;;;;;;;;;5001320;28;20034;-63
2021/09/24 05:21:21;;;;;;;4.65;2.03;;;;;;;;;;4994612;28;20111;-63
2021/09/24 05:23:47;;;;;;;4.72;1.77;;;;;;;;;;4998608;28;20041;-63
2021/09/24 05:26:12;;;;;;;3.00;1.67;;;;;;;;;;4999302;28;20037;-63
2021/09/24 05:28:38;;;;;;;3.85;2.00;;;;;;;;;;4999457;28;20477;-63
2021/09/24 05:31:04;;;;;;;5.40;2.00;;;;;;;;;;4993387;28;20448;-63
2021/09/24 05:33:30;;;;;;;2.70;1.98;;;;;;;;;;5000816;28;20390;-63
2021/09/24 05:35:55;;;;;;;4.53;2.45;;;;;;;;;;5004088;28;20053;-63
2021/09/24 05:38:21;;;;;;;4.13;2.30;;;;;;;;;;4999738;28;20120;-63
2021/09/24 05:40:46;;;;;;;5.38;2.40;;;;;;;;;;5000350;28;20034;-63
2021/09/24 05:43:12;;;;;;;3.50;2.17;;;;;;;;;;5003942;28;20037;-63
2021/09/24 05:45:37;;;;;;;5.10;2.50;;;;;;;;;;4997939;28;20026;-63
2021/09/24 05:48:03;;;;;;;4.97;2.10;;;;;;;;;;4997878;28;20249;-63
2021/09/24 05:50:31;;;;;;;3.58;1.77;;;;;;;;;;5001342;28;20022;-63
2021/09/24 05:52:58;;;;;;;4.47;1.67;;;;;;;;;;5001277;28;20210;-64
2021/09/24 05:55:24;;;;;;;7.88;2.20;;;;;;;;;;4996670;28;20057;-63
2021/09/24 05:57:51;;;;;;;4.53;1.60;;;;;;;;;;5000441;28;20467;-63
2021/09/24 06:00:19;;;;;;;9.68;2.00;;;;;;;;;;4992385;28;20427;-63
2021/09/24 06:02:46;;;;;;;4.78;1.73;;;;;;;;;;4998553;28;20241;-63
2021/09/24 06:05:13;;;;;;;4.38;1.58;;;;;;;;;;4994099;28;20062;-63
2021/09/24 06:07:39;;;;;;;2.05;1.60;;;;;;;;;;4992631;28;20030;-63
2021/09/24 06:10:07;;;;;;;3.28;1.48;;;;;;;;;;4997790;28;20045;-63
2021/09/24 06:12:32;;;;;;;3.13;1.40;;;;;;;;;;5003204;28;20158;-63
2021/09/24 06:15:00;;;;;;;3.47;1.67;;;;;;;;;;5003796;28;20053;-63
2021/09/24 06:17:27;;;;;;;3.88;1.80;;;;;;;;;;4999951;28;20038;-63
2021/09/24 06:19:53;;;;;;;3.13;1.90;;;;;;;;;;5003434;28;20084;-63
2021/09/24 06:22:19;;;;;;;6.47;2.75;;;;;;;;;;4996266;28;20068;-64
2021/09/24 06:24:46;;;;;;;13.25;2.80;;;;;;;;;;4997754;28;20536;-63
2021/09/24 06:27:16;;;;;;;4.15;2.40;;;;;;;;;;4997769;28;20025;-63
2021/09/24 06:29:47;;;;;;;4.90;2.70;;;;;;;;;;5003032;28;20060;-63
2021/09/24 06:32:13;;;;;;;7.22;2.70;;;;;;;;;;4997273;28;20113;-63
2021/09/24 06:34:40;;;;;;;4.15;2.08;;;;;;;;;;4994265;28;20038;-63
2021/09/24 06:37:06;;;;;;;3.72;2.53;;;;;;;;;;4997730;28;20093;-64
2021/09/24 06:39:32;;;;;;;3.97;1.67;;;;;;;;;;4994861;28;20476;-64
2021/09/24 06:41:58;;;;;;;7.03;1.67;;;;;;;;;;4994910;28;20053;-64
2021/09/24 06:44:24;;;;;;;2.55;1.17;;;;;;;;;;5000044;28;20775;-63
2021/09/24 06:46:50;;;;;;;5.72;1.42;;;;;;;;;;4997788;28;20088;-63
2021/09/24 06:49:16;;;;;;;3.47;1.20;;;;;;;;;;4994294;28;20026;-63
2021/09/24 06:51:41;;;;;;;4.63;2.08;;;;;;;;;;4999171;28;20789;-63
2021/09/24 06:54:08;;;;;;;6.07;1.30;;;;;;;;;;5002205;28;20034;-63
2021/09/24 06:56:34;;;;;;;4.22;1.20;;;;;;;;;;5003703;28;20022;-63
2021/09/24 06:59:00;;;;;;;2.17;0.90;;;;;;;;;;4999058;28;20115;-63
2021/09/24 07:01:27;;;;;;;3.85;0.98;;;;;;;;;;5003712;28;20040;-63
2021/09/24 07:03:52;;;;;;;4.80;1.50;;;;;;;;;;4999850;28;20325;-63
2021/09/24 07:06:18;;;;;;;2.15;0.85;;;;;;;;;;4999496;28;20529;-62
2021/09/24 07:08:43;;;;;;;4.15;1.17;;;;;;;;;;4998190;28;20113;-63
2021/09/24 07:11:10;;;;;;;3.42;1.30;;;;;;;;;;5001542;28;20489;-63
2021/09/24 07:13:35;;;;;;;3.58;1.42;;;;;;;;;;4999207;28;20034;-63
2021/09/24 07:16:02;;;;;;;7.57;2.05;;;;;;;;;;5007911;28;20072;-63
2021/09/24 07:18:28;;;;;;;11.20;1.42;;;;;;;;;;4995130;28;20382;-64
2021/09/24 07:20:54;;;;;;;2.55;1.20;;;;;;;;;;5003006;28;20029;-64
2021/09/24 07:23:20;;;;;;;2.97;1.40;;;;;;;;;;4995638;28;20452;-63
2021/09/24 07:25:46;;;;;;;4.40;1.42;;;;;;;;;;4980979;28;20120;-63
2021/09/24 07:28:11;;;;;;;3.05;1.23;;;;;;;;;;4996175;28;20042;-63
2021/09/24 07:30:37;;;;;;;4.88;1.27;;;;;;;;;;5002870;28;20508;-63
2021/09/24 07:33:02;;;;;;;5.10;2.17;;;;;;;;;;4997599;28;20045;-64
2021/09/24 07:35:28;;;;;;;2.75;1.13;;;;;;;;;;5000660;28;20030;-63
2021/09/24 07:37:53;;;;;;;1.70;1.42;;;;;;;;;;4998022;28;20449;-63
2021/09/24 07:40:19;;;;;;;2.03;0.90;;;;;;;;;;5000326;28;20034;-63
2021/09/24 07:42:44;;;;;;;2.92;1.17;;;;;;;;;;4995130;28;20485;-63
2021/09/24 07:45:10;;;;;;;4.60;1.20;;;;;;;;;;5001246;28;20023;-63
2021/09/24 07:47:36;;;;;;;4.30;1.20;;;;;;;;;;5004927;28;20033;-63
2021/09/24 07:50:02;;;;;;;5.53;1.15;;;;;;;;;;4996557;28;20524;-63
2021/09/24 07:52:28;;;;;;;3.80;0.95;;;;;;;;;;5002009;28;20481;-63
2021/09/24 07:54:54;;;;;;;2.85;0.98;;;;;;;;;;5002105;28;20064;-63
2021/09/24 07:57:19;;;;;;;3.85;0.90;;;;;;;;;;4999807;28;20062;-63
2021/09/24 07:59:46;;;;;;;1.58;0.68;;;;;;;;;;5000754;28;20026;-63
2021/09/24 08:02:12;;;;;;;5.57;1.05;;;;;;;;;;5003453;28;20029;-63
2021/09/24 08:04:37;;;;;;;6.32;1.02;;;;;;;;;;4997298;28;20448;-63
2021/09/24 08:07:06;;;;;;;4.90;1.00;;;;;;;;;;4996791;28;20022;-64
2021/09/24 08:09:31;;;;;;;5.05;1.00;;;;;;;;;;4996969;28;20034;-63
2021/09/24 08:11:57;;;;;;;0.90;0.60;;;;;;;;;;4998637;28;20039;-63
2021/09/24 08:14:22;;;;;;;2.72;0.75;;;;;;;;;;5000001;28;20041;-63
2021/09/24 08:16:48;;;;;;;1.95;0.90;;;;;;;;;;5001288;28;20038;-62
2021/09/24 08:19:13;;;;;;;2.42;0.80;;;;;;;;;;4997962;28;20405;-63
2021/09/24 08:21:39;;;;;;;2.90;0.70;;;;;;;;;;5000884;28;20030;-60
2021/09/24 08:24:05;;;;;;;1.95;0.70;;;;;;;;;;5000282;28;20080;-63
2021/09/24 08:26:30;;;;;;;3.20;0.70;;;;;;;;;;5006428;28;20044;-63
2021/09/24 08:28:56;;;;;;;3.90;1.00;;;;;;;;;;4997539;28;20432;-63
2021/09/24 08:31:21;;;;;;;3.53;0.55;;;;;;;;;;4997848;28;20077;-64
2021/09/24 08:33:47;;;;;;;2.65;0.68;;;;;;;;;;4993976;28;20497;-64
2021/09/24 08:36:14;;;;;;;4.00;0.82;;;;;;;;;;4995582;28;20337;-64
2021/09/24 08:38:39;;;;;;;1.10;0.80;;;;;;;;;;5000914;28;20453;-65
2021/09/24 08:41:05;;;;;;;2.63;0.80;;;;;;;;;;4997235;28;20113;-65
2021/09/24 08:43:31;;;;;;;2.00;0.52;;;;;;;;;;4997296;28;20085;-65
2021/09/24 08:45:57;;;;;;;1.20;0.65;;;;;;;;;;5000494;28;20416;-66
2021/09/24 08:48:23;;;;;;;2.20;1.08;;;;;;;;;;4997643;28;20038;-65
2021/09/24 08:50:51;;;;;;;2.40;0.45;;;;;;;;;;5003688;28;20046;-66
2021/09/24 08:53:19;;;;;;;4.03;0.70;;;;;;;;;;4992530;28;20025;-65
2021/09/24 08:55:45;;;;;;;1.85;0.80;;;;;;;;;;4998873;28;20110;-67
2021/09/24 08:58:15;;;;;;;4.30;0.40;;;;;;;;;;5002527;28;20528;-65
2021/09/24 09:00:42;;;;;;;0.93;0.60;;;;;;;;;;4999648;28;20042;-66
2021/09/24 09:03:10;;;;;;;3.22;0.60;;;;;;;;;;5004036;28;20045;-62
2021/09/24 09:05:53;;;;;;;1.67;0.45;;;;;;;;;;5000346;28;20115;-64
2021/09/24 09:08:23;;;;;;;1.40;0.45;;;;;;;;;;4997636;28;20038;-64
2021/09/24 09:11:00;;;;;;;2.08;0.52;;;;;;;;;;5002542;28;20061;-65
2021/09/24 09:13:30;;;;;;;1.48;0.50;;;;;;;;;;4999157;28;20062;-65
2021/09/24 09:16:00;;;;;;;4.00;1.02;;;;;;;;;;4997487;28;20033;-63
2021/09/24 09:18:27;;;;;;;1.65;0.30;;;;;;;;;;5001993;28;20062;-66
2021/09/24 09:20:54;;;;;;;1.83;0.95;;;;;;;;;;5003265;28;20029;-67
2021/09/24 09:23:22;;;;;;;2.08;0.57;;;;;;;;;;5000953;28;20034;-63
2021/09/24 09:25:49;;;;;;;2.60;1.08;;;;;;;;;;4999137;28;20054;-64
2021/09/24 09:28:26;;;;;;;4.07;0.65;;;;;;;;;;4997002;28;20112;-63
2021/09/24 09:30:54;;;;;;;4.30;0.70;;;;;;;;;;4998756;28;20513;-62
2021/09/24 09:33:21;;;;;;;5.95;0.63;;;;;;;;;;4996771;28;20038;-63
2021/09/24 09:35:56;;;;;;;2.33;0.73;;;;;;;;;;4993517;28;20085;-63
2021/09/24 09:38:42;;;;;;;4.20;0.55;;;;;;;;;;5001329;28;20440;-64
2021/09/24 09:41:09;;;;;;;2.95;0.70;;;;;;;;;;5001126;28;20056;-63
2021/09/24 09:43:39;;;;;;;1.85;1.15;;;;;;;;;;5000235;28;20025;-62
2021/09/24 09:46:14;;;;;;;2.75;0.65;;;;;;;;;;4998496;28;20559;-62
2021/09/24 09:48:40;;;;;;;4.22;0.70;;;;;;;;;;4994379;28;20030;-62
2021/09/24 09:51:07;;;;;;;4.55;0.55;;;;;;;;;;4998419;28;20144;-62
2021/09/24 09:53:33;;;;;;;4.53;0.80;;;;;;;;;;5001983;28;20374;-62
2021/09/24 09:56:02;;;;;;;2.90;0.70;;;;;;;;;;4998967;28;20038;-59
2021/09/24 09:58:33;;;;;;;3.33;0.65;;;;;;;;;;4999560;28;20132;-61
2021/09/24 10:01:08;;;;;;;3.67;0.90;;;;;;;;;;4996602;28;20091;-61
2021/09/24 10:03:41;;;;;;;3.72;0.75;;;;;;;;;;5001777;28;20104;-60
2021/09/24 10:06:39;;;;;;;1.88;0.85;;;;;;;;;;4991745;28;20045;-61
2021/09/24 10:09:05;;;;;;;1.58;1.00;;;;;;;;;;4986764;28;20460;-61
2021/09/24 10:11:35;;;;;;;3.05;0.80;;;;;;;;;;5003392;28;20036;-60
2021/09/24 10:14:04;;;;;;;2.90;0.80;;;;;;;;;;4999870;28;20037;-61
2021/09/24 10:16:33;;;;;;;5.75;1.50;;;;;;;;;;4999356;28;20029;-61
2021/09/24 10:18:59;;;;;;;1.63;0.60;;;;;;;;;;4992708;28;20041;-61
2021/09/24 10:21:24;;;;;;;2.25;0.70;;;;;;;;;;4992952;28;20409;-61
2021/09/24 10:23:50;;;;;;;4.03;1.00;;;;;;;;;;4999531;28;20014;-61
2021/09/24 10:26:27;;;;;;;2.28;0.80;;;;;;;;;;4993409;28;20056;-62
2021/09/24 10:29:04;;;;;;;5.03;0.93;;;;;;;;;;4997160;28;20517;-61
2021/09/24 10:31:38;;;;;;;2.13;0.98;;;;;;;;;;4993884;28;20088;-61
2021/09/24 10:34:05;;;;;;;4.32;1.15;;;;;;;;;;5000246;28;20049;-61
2021/09/24 10:36:44;;;;;;;5.53;0.82;;;;;;;;;;4997325;28;20132;-62
2021/09/24 10:39:31;;;;;;;2.13;1.25;;;;;;;;;;4999557;28;20644;-62
2021/09/24 10:42:15;;;;;;;4.15;0.73;;;;;;;;;;4993075;28;20096;-62
2021/09/24 10:45:02;;;;;;;1.80;0.60;;;;;;;;;;4994281;28;20356;-61
2021/09/24 10:47:43;;;;;;;4.10;0.80;;;;;;;;;;4997926;28;20073;-62
2021/09/24 10:50:34;;;;;;;2.22;0.77;;;;;;;;;;4998085;28;20077;-62
2021/09/24 10:53:17;;;;;;;2.13;0.70;;;;;;;;;;4997402;28;20033;-61
2021/09/24 10:55:54;;;;;;;3.20;0.68;;;;;;;;;;4996735;28;20401;-62
2021/09/24 10:58:22;;;;;;;4.05;0.65;;;;;;;;;;5017840;28;20052;-60
2021/09/24 11:00:50;;;;;;;2.75;0.47;;;;;;;;;;4995611;28;20037;-62
2021/09/24 11:03:19;;;;;;;1.00;0.52;;;;;;;;;;4994186;28;20581;-61
2021/09/24 11:06:06;;;;;;;4.82;0.80;;;;;;;;;;4993263;28;20034;-62
2021/09/24 11:08:36;;;;;;;3.65;0.60;;;;;;;;;;4994667;28;20042;-62
2021/09/24 11:11:12;;;;;;;8.23;0.75;;;;;;;;;;4996079;28;20543;-62
2021/09/24 11:13:44;;;;;;;7.13;0.60;;;;;;;;;;5004795;28;20034;-62
2021/09/24 11:16:18;;;;;;;8.10;0.80;;;;;;;;;;5005497;28;20137;-61
2021/09/24 11:18:50;;;;;;;2.00;0.80;;;;;;;;;;4998785;28;20038;-61
2021/09/24 11:21:22;;;;;;;5.55;1.08;;;;;;;;;;5000765;28;20065;-61
2021/09/24 11:23:50;;;;;;;1.42;0.65;;;;;;;;;;4991219;28;20026;-63
2021/09/24 11:26:29;;;;;;;4.22;0.50;;;;;;;;;;4995432;28;20029;-61
2021/09/24 11:29:05;;;;;;;3.65;1.00;;;;;;;;;;4999168;28;20088;-61
2021/09/24 11:31:52;;;;;;;2.78;0.57;;;;;;;;;;5001676;28;20393;-61
2021/09/24 11:34:33;;;;;;;3.67;0.50;;;;;;;;;;4999314;28;20493;-61
2021/09/24 11:37:02;;;;;;;4.80;0.38;;;;;;;;;;5002026;28;20030;-62
2021/09/24 11:39:28;;;;;;;3.35;0.40;;;;;;;;;;4992668;28;20042;-62
2021/09/24 11:42:09;;;;;;;11.77;0.68;;;;;;;;;;4994355;28;20399;-60
2021/09/24 11:44:35;;;;;;;1.33;0.55;;;;;;;;;;4999982;28;20053;-60
2021/09/24 11:47:13;;;;;;;4.70;0.52;;;;;;;;;;4991127;28;20036;-60
2021/09/24 11:49:52;;;;;;;2.28;0.70;;;;;;;;;;4994443;28;20101;-60
2021/09/24 11:52:18;;;;;;;3.70;0.70;;;;;;;;;;4995114;28;20367;-60
2021/09/24 11:54:43;;;;;;;2.20;0.50;;;;;;;;;;5002821;28;20117;-60
2021/09/24 11:57:17;;;;;;;4.60;0.73;;;;;;;;;;4994460;28;20045;-60
2021/09/24 11:59:43;;;;;;;3.72;0.60;;;;;;;;;;5001729;28;20053;-59
2021/09/24 12:02:19;;;;;;;6.95;0.85;;;;;;;;;;4997064;28;20088;-59
2021/09/24 12:04:58;;;;;;;5.07;0.70;;;;;;;;;;4993084;28;20026;-60
2021/09/24 12:07:24;;;;;;;4.13;0.60;;;;;;;;;;4997809;28;20393;-59
2021/09/24 12:09:58;;;;;;;1.25;0.40;;;;;;;;;;4993477;28;20033;-59
2021/09/24 12:12:24;;;;;;;5.53;0.80;;;;;;;;;;4995397;28;20018;-60
2021/09/24 12:15:00;;;;;;;2.45;0.40;;;;;;;;;;4995074;28;20029;-61
2021/09/24 12:17:27;;;;;;;6.57;0.55;;;;;;;;;;4999442;28;20042;-60
2021/09/24 12:19:53;;;;;;;2.50;0.40;;;;;;;;;;4995311;28;20061;-60
2021/09/24 12:22:19;;;;;;;4.97;0.50;;;;;;;;;;4994167;28;20086;-60
2021/09/24 12:24:47;;;;;;;5.43;0.52;;;;;;;;;;4995281;28;20127;-60
2021/09/24 12:27:32;;;;;;;7.75;0.52;;;;;;;;;;4991451;28;20058;-60
2021/09/24 12:30:15;;;;;;;1.98;0.50;;;;;;;;;;4994862;28;20189;-60
2021/09/24 12:32:42;;;;;;;6.13;0.77;;;;;;;;;;4997462;28;20022;-60
2021/09/24 12:35:08;;;;;;;6.18;0.50;;;;;;;;;;4997503;28;20042;-60
2021/09/24 12:37:39;;;;;;;4.45;0.60;;;;;;;;;;4999362;28;20041;-60
2021/09/24 12:40:12;;;;;;;3.60;0.57;;;;;;;;;;4998135;28;20061;-61
2021/09/24 12:42:41;;;;;;;4.85;0.60;;;;;;;;;;4999429;28;20401;-60
2021/09/24 12:45:10;;;;;;;1.65;0.50;;;;;;;;;;4992984;28;20036;-60
2021/09/24 12:47:37;;;;;;;5.25;1.00;;;;;;;;;;4998348;28;20460;-60
2021/09/24 12:50:07;;;;;;;4.00;0.60;;;;;;;;;;4991581;28;20030;-60
2021/09/24 12:52:34;;;;;;;2.35;0.52;;;;;;;;;;4995810;28;20030;-59
2021/09/24 12:55:01;;;;;;;0.80;0.47;;;;;;;;;;4996150;28;20129;-59
2021/09/24 12:57:27;;;;;;;1.42;0.50;;;;;;;;;;5001340;28;20034;-59
2021/09/24 12:59:55;;;;;;;3.05;0.55;;;;;;;;;;4998341;28;20030;-59
2021/09/24 13:02:23;;;;;;;4.03;0.52;;;;;;;;;;4995153;28;20034;-60
2021/09/24 13:04:48;;;;;;;9.50;0.70;;;;;;;;;;4997134;28;20073;-60
2021/09/24 13:07:18;;;;;;;4.72;0.60;;;;;;;;;;4996621;28;20416;-60
2021/09/24 13:09:45;;;;;;;7.97;0.60;;;;;;;;;;4996809;28;20042;-60
2021/09/24 13:12:11;;;;;;;1.58;0.35;;;;;;;;;;4999725;28;20416;-60
2021/09/24 13:14:39;;;;;;;1.45;0.47;;;;;;;;;;4992277;28;20088;-60
2021/09/24 13:17:04;;;;;;;2.55;0.50;;;;;;;;;;5002783;28;20103;-60
2021/09/24 13:19:30;;;;;;;2.53;0.60;;;;;;;;;;4996031;28;20113;-60
2021/09/24 13:21:55;;;;;;;3.10;0.65;;;;;;;;;;4995640;28;20030;-60
2021/09/24 13:24:21;;;;;;;3.88;0.75;;;;;;;;;;4996421;28;20030;-60
2021/09/24 13:26:47;;;;;;;3.30;0.70;;;;;;;;;;4993478;28;20038;-60
2021/09/24 13:29:12;;;;;;;0.95;0.65;;;;;;;;;;4990319;28;20035;-61
2021/09/24 13:31:38;;;;;;;1.85;0.60;;;;;;;;;;4996937;28;20038;-60
2021/09/24 13:34:05;;;;;;;3.03;0.65;;;;;;;;;;4994986;28;20149;-61
2021/09/24 13:36:32;;;;;;;4.18;0.80;;;;;;;;;;4999796;28;20058;-60
2021/09/24 13:38:58;;;;;;;2.10;0.80;;;;;;;;;;4991659;28;20458;-60
2021/09/24 13:41:24;;;;;;;0.88;0.50;;;;;;;;;;4995119;28;20033;-60
2021/09/24 13:43:49;;;;;;;3.05;0.50;;;;;;;;;;4997625;28;20064;-60
2021/09/24 13:46:15;;;;;;;3.25;0.50;;;;;;;;;;4995187;28;20528;-60
2021/09/24 13:48:40;;;;;;;0.50;0.40;;;;;;;;;;4994792;28;20556;-61
2021/09/24 13:51:06;;;;;;;1.02;0.50;;;;;;;;;;4992889;28;20062;-60
2021/09/24 13:53:32;;;;;;;1.27;0.50;;;;;;;;;;4993633;28;20464;-60
2021/09/24 13:55:58;;;;;;;0.82;0.40;;;;;;;;;;4996584;28;20485;-60
2021/09/24 13:58:23;;;;;;;2.00;0.80;;;;;;;;;;4992392;28;20026;-60
2021/09/24 14:00:49;;;;;;;4.38;0.80;;;;;;;;;;4995982;28;20061;-61
2021/09/24 14:03:14;;;;;;;0.85;0.40;;;;;;;;;;4990928;28;20473;-60
2021/09/24 14:05:40;;;;;;;0.82;0.50;;;;;;;;;;4998449;28;20444;-60
2021/09/24 14:08:05;;;;;;;3.17;0.65;;;;;;;;;;4997044;28;20531;-60
2021/09/24 14:10:32;;;;;;;1.80;0.75;;;;;;;;;;4990588;28;20121;-60
2021/09/24 14:12:57;;;;;;;2.72;0.57;;;;;;;;;;4994437;28;20026;-61
2021/09/24 14:15:23;;;;;;;2.40;0.70;;;;;;;;;;4992139;28;20111;-60
2021/09/24 14:17:49;;;;;;;0.95;0.80;;;;;;;;;;4991338;28;20488;-60
2021/09/24 14:20:18;;;;;;;2.42;0.70;;;;;;;;;;4996087;28;20426;-60
2021/09/24 14:22:43;;;;;;;2.28;0.85;;;;;;;;;;4994667;28;20018;-60
2021/09/24 14:25:10;;;;;;;2.55;1.60;;;;;;;;;;5001612;28;20041;-61
2021/09/24 14:27:36;;;;;;;2.70;0.95;;;;;;;;;;4993415;28;20026;-60
2021/09/24 14:30:05;;;;;;;5.25;1.23;;;;;;;;;;4997588;28;20071;-60
2021/09/24 14:32:30;;;;;;;2.45;1.63;;;;;;;;;;4991801;28;20081;-60
2021/09/24 14:34:56;;;;;;;2.78;1.50;;;;;;;;;;4999695;28;20074;-61
2021/09/24 14:37:21;;;;;;;2.58;1.35;;;;;;;;;;4997791;28;20024;-60
2021/09/24 14:39:47;;;;;;;1.05;0.85;;;;;;;;;;4997041;28;20039;-62
2021/09/24 14:42:12;;;;;;;1.65;0.85;;;;;;;;;;4996766;28;20033;-60
2021/09/24 14:44:38;;;;;;;2.42;0.93;;;;;;;;;;4997526;28;20037;-61